sensor_id;sensor_type;location;lat;lon;timestamp;temperature;humidity
17827;DHT22;9038;48.208;16.308;2023-12-28T00:01:33;7.50;99.90
17827;DHT22;9038;48.208;16.308;2023-12-28T00:03:35;7.50;99.90
17827;DHT22;9038;48.208;16.308;2023-12-28T00:05:36;7.50;99.90
17827;DHT22;9038;48.208;16.308;2023-12-28T00:07:38;7.50;99.90
17827;DHT22;9038;48.208;16.308;2023-12-28T00:09:40;7.50;99.90
17827;DHT22;9038;48.208;16.308;2023-12-28T00:11:43;7.40;99.90
17827;DHT22;9038;48.208;16.308;2023-12-28T00:13:43;7.40;99.90
17827;DHT22;9038;48.208;16.308;2023-12-28T00:15:45;7.40;99.90
17827;DHT22;9038;48.208;16.308;2023-12-28T00:17:47;7.40;99.90
17827;DHT22;9038;48.208;16.308;2023-12-28T00:19:48;7.40;99.90
17827;DHT22;9038;48.208;16.308;2023-12-28T00:21:49;7.40;99.90
17827;DHT22;9038;48.208;16.308;2023-12-28T00:23:51;7.40;99.90
17827;DHT22;9038;48.208;16.308;2023-12-28T00:25:52;7.30;99.90
17827;DHT22;9038;48.208;16.308;2023-12-28T00:27:55;7.30;99.90
17827;DHT22;9038;48.208;16.308;2023-12-28T00:29:57;7.30;99.90
17827;DHT22;9038;48.208;16.308;2023-12-28T00:31:59;7.30;99.90
17827;DHT22;9038;48.208;16.308;2023-12-28T00:34:00;7.30;99.90
17827;DHT22;9038;48.208;16.308;2023-12-28T00:36:01;7.30;99.90
17827;DHT22;9038;48.208;16.308;2023-12-28T00:38:03;7.30;99.90
17827;DHT22;9038;48.208;16.308;2023-12-28T00:40:05;7.30;99.90
17827;DHT22;9038;48.208;16.308;2023-12-28T00:42:07;7.30;99.90
17827;DHT22;9038;48.208;16.308;2023-12-28T00:44:10;7.20;99.90
17827;DHT22;9038;48.208;16.308;2023-12-28T00:46:11;7.20;99.90
17827;DHT22;9038;48.208;16.308;2023-12-28T00:48:13;7.20;99.90
17827;DHT22;9038;48.208;16.308;2023-12-28T00:50:15;7.20;99.90
17827;DHT22;9038;48.208;16.308;2023-12-28T00:52:16;7.10;99.90
17827;DHT22;9038;48.208;16.308;2023-12-28T00:54:17;7.10;99.90
17827;DHT22;9038;48.208;16.308;2023-12-28T00:56:19;7.00;99.90
17827;DHT22;9038;48.208;16.308;2023-12-28T00:58:21;7.00;99.90
17827;DHT22;9038;48.208;16.308;2023-12-28T01:00:24;7.10;99.90
17827;DHT22;9038;48.208;16.308;2023-12-28T01:02:26;7.00;99.90
17827;DHT22;9038;48.208;16.308;2023-12-28T01:04:28;7.10;99.90
17827;DHT22;9038;48.208;16.308;2023-12-28T01:06:30;7.00;99.90
17827;DHT22;9038;48.208;16.308;2023-12-28T01:08:30;7.10;99.90
17827;DHT22;9038;48.208;16.308;2023-12-28T01:10:34;7.00;99.90
17827;DHT22;9038;48.208;16.308;2023-12-28T01:12:35;7.00;99.90
17827;DHT22;9038;48.208;16.308;2023-12-28T01:14:37;7.00;99.90
17827;DHT22;9038;48.208;16.308;2023-12-28T01:16:40;7.00;99.90
17827;DHT22;9038;48.208;16.308;2023-12-28T01:18:44;7.00;99.90
17827;DHT22;9038;48.208;16.308;2023-12-28T01:20:46;7.00;99.90
17827;DHT22;9038;48.208;16.308;2023-12-28T01:22:47;6.90;99.90
17827;DHT22;9038;48.208;16.308;2023-12-28T01:24:50;6.90;99.90
17827;DHT22;9038;48.208;16.308;2023-12-28T01:26:52;7.00;99.90
17827;DHT22;9038;48.208;16.308;2023-12-28T01:28:54;7.00;99.90
17827;DHT22;9038;48.208;16.308;2023-12-28T01:30:57;7.00;99.90
17827;DHT22;9038;48.208;16.308;2023-12-28T01:33:00;7.00;99.90
17827;DHT22;9038;48.208;16.308;2023-12-28T01:35:02;6.90;99.90
17827;DHT22;9038;48.208;16.308;2023-12-28T01:37:03;7.00;99.90
17827;DHT22;9038;48.208;16.308;2023-12-28T01:39:05;6.90;99.90
17827;DHT22;9038;48.208;16.308;2023-12-28T01:41:07;7.00;99.90
17827;DHT22;9038;48.208;16.308;2023-12-28T01:43:08;6.90;99.90
17827;DHT22;9038;48.208;16.308;2023-12-28T01:45:10;6.90;99.90
17827;DHT22;9038;48.208;16.308;2023-12-28T01:47:11;7.00;99.90
17827;DHT22;9038;48.208;16.308;2023-12-28T01:49:13;6.90;99.90
17827;DHT22;9038;48.208;16.308;2023-12-28T01:51:15;7.00;99.90
17827;DHT22;9038;48.208;16.308;2023-12-28T01:53:17;7.00;99.90
17827;DHT22;9038;48.208;16.308;2023-12-28T01:55:18;7.00;99.90
17827;DHT22;9038;48.208;16.308;2023-12-28T01:57:21;7.10;99.90
17827;DHT22;9038;48.208;16.308;2023-12-28T01:59:23;7.10;99.90
17827;DHT22;9038;48.208;16.308;2023-12-28T02:01:24;7.20;99.90
17827;DHT22;9038;48.208;16.308;2023-12-28T02:03:26;7.30;99.90
17827;DHT22;9038;48.208;16.308;2023-12-28T02:05:29;7.30;99.90
17827;DHT22;9038;48.208;16.308;2023-12-28T02:07:30;7.30;99.90
17827;DHT22;9038;48.208;16.308;2023-12-28T02:09:33;7.40;99.90
17827;DHT22;9038;48.208;16.308;2023-12-28T02:11:35;7.40;99.90
17827;DHT22;9038;48.208;16.308;2023-12-28T02:13:36;7.40;99.90
17827;DHT22;9038;48.208;16.308;2023-12-28T02:15:38;7.40;99.90
17827;DHT22;9038;48.208;16.308;2023-12-28T02:17:42;7.50;99.90
17827;DHT22;9038;48.208;16.308;2023-12-28T02:19:47;7.50;99.90
17827;DHT22;9038;48.208;16.308;2023-12-28T02:21:52;7.60;99.90
17827;DHT22;9038;48.208;16.308;2023-12-28T02:23:55;7.60;99.90
17827;DHT22;9038;48.208;16.308;2023-12-28T02:25:58;7.60;99.90
17827;DHT22;9038;48.208;16.308;2023-12-28T02:27:59;7.50;99.90
17827;DHT22;9038;48.208;16.308;2023-12-28T02:30:01;7.40;99.90
17827;DHT22;9038;48.208;16.308;2023-12-28T02:32:03;7.30;99.90
17827;DHT22;9038;48.208;16.308;2023-12-28T02:34:09;7.30;99.90
17827;DHT22;9038;48.208;16.308;2023-12-28T02:36:13;7.30;99.90
17827;DHT22;9038;48.208;16.308;2023-12-28T02:38:17;7.30;99.90
17827;DHT22;9038;48.208;16.308;2023-12-28T02:40:19;7.30;99.90
17827;DHT22;9038;48.208;16.308;2023-12-28T02:42:23;7.30;99.90
17827;DHT22;9038;48.208;16.308;2023-12-28T02:44:24;7.40;99.90
17827;DHT22;9038;48.208;16.308;2023-12-28T02:46:26;7.40;99.90
17827;DHT22;9038;48.208;16.308;2023-12-28T02:48:27;7.50;99.90
17827;DHT22;9038;48.208;16.308;2023-12-28T02:50:29;7.50;99.90
17827;DHT22;9038;48.208;16.308;2023-12-28T02:52:31;7.40;99.90
17827;DHT22;9038;48.208;16.308;2023-12-28T02:54:32;7.40;99.90
17827;DHT22;9038;48.208;16.308;2023-12-28T02:56:34;7.40;99.90
17827;DHT22;9038;48.208;16.308;2023-12-28T02:58:37;7.50;99.90
17827;DHT22;9038;48.208;16.308;2023-12-28T03:00:38;7.50;99.90
17827;DHT22;9038;48.208;16.308;2023-12-28T03:02:40;7.50;99.90
17827;DHT22;9038;48.208;16.308;2023-12-28T03:04:42;7.50;99.90
17827;DHT22;9038;48.208;16.308;2023-12-28T03:06:44;7.50;99.90
17827;DHT22;9038;48.208;16.308;2023-12-28T03:08:47;7.50;99.90
17827;DHT22;9038;48.208;16.308;2023-12-28T03:10:49;7.50;99.90
17827;DHT22;9038;48.208;16.308;2023-12-28T03:12:50;7.30;99.90
17827;DHT22;9038;48.208;16.308;2023-12-28T03:14:53;7.60;99.90
17827;DHT22;9038;48.208;16.308;2023-12-28T03:16:54;7.50;99.90
17827;DHT22;9038;48.208;16.308;2023-12-28T03:18:56;7.60;99.90
17827;DHT22;9038;48.208;16.308;2023-12-28T03:20:57;7.50;99.90
17827;DHT22;9038;48.208;16.308;2023-12-28T03:22:59;7.50;99.90
17827;DHT22;9038;48.208;16.308;2023-12-28T03:25:01;7.50;99.90
17827;DHT22;9038;48.208;16.308;2023-12-28T03:27:03;7.40;99.90
17827;DHT22;9038;48.208;16.308;2023-12-28T03:29:04;7.40;99.90
17827;DHT22;9038;48.208;16.308;2023-12-28T03:31:08;7.50;99.90
17827;DHT22;9038;48.208;16.308;2023-12-28T03:33:09;7.50;99.90
17827;DHT22;9038;48.208;16.308;2023-12-28T03:35:11;7.50;99.90
17827;DHT22;9038;48.208;16.308;2023-12-28T03:37:12;7.50;99.90
17827;DHT22;9038;48.208;16.308;2023-12-28T03:39:14;7.40;99.90
17827;DHT22;9038;48.208;16.308;2023-12-28T03:41:16;7.40;99.90
17827;DHT22;9038;48.208;16.308;2023-12-28T03:43:18;7.40;99.90
17827;DHT22;9038;48.208;16.308;2023-12-28T03:45:19;7.30;99.90
17827;DHT22;9038;48.208;16.308;2023-12-28T03:47:22;7.30;99.90
17827;DHT22;9038;48.208;16.308;2023-12-28T03:49:24;7.40;99.90
17827;DHT22;9038;48.208;16.308;2023-12-28T03:51:26;7.40;99.90
17827;DHT22;9038;48.208;16.308;2023-12-28T03:53:26;7.40;99.90
17827;DHT22;9038;48.208;16.308;2023-12-28T03:55:28;7.40;99.90
17827;DHT22;9038;48.208;16.308;2023-12-28T03:57:30;7.40;99.90
17827;DHT22;9038;48.208;16.308;2023-12-28T03:59:31;7.40;99.90
17827;DHT22;9038;48.208;16.308;2023-12-28T04:01:32;7.50;99.90
17827;DHT22;9038;48.208;16.308;2023-12-28T04:03:35;7.50;99.90
17827;DHT22;9038;48.208;16.308;2023-12-28T04:05:37;7.50;99.90
17827;DHT22;9038;48.208;16.308;2023-12-28T04:07:38;7.50;99.90
17827;DHT22;9038;48.208;16.308;2023-12-28T04:09:40;7.50;99.90
17827;DHT22;9038;48.208;16.308;2023-12-28T04:11:42;7.50;99.90
17827;DHT22;9038;48.208;16.308;2023-12-28T04:13:43;7.50;99.90
17827;DHT22;9038;48.208;16.308;2023-12-28T04:15:45;7.40;99.90
17827;DHT22;9038;48.208;16.308;2023-12-28T04:17:45;7.40;99.90
17827;DHT22;9038;48.208;16.308;2023-12-28T04:19:49;7.20;99.90
17827;DHT22;9038;48.208;16.308;2023-12-28T04:21:50;7.10;99.90
17827;DHT22;9038;48.208;16.308;2023-12-28T04:23:52;7.10;99.90
17827;DHT22;9038;48.208;16.308;2023-12-28T04:25:53;7.10;99.90
17827;DHT22;9038;48.208;16.308;2023-12-28T04:27:55;7.20;99.90
17827;DHT22;9038;48.208;16.308;2023-12-28T04:29:57;7.20;99.90
17827;DHT22;9038;48.208;16.308;2023-12-28T04:31:58;7.20;99.90
17827;DHT22;9038;48.208;16.308;2023-12-28T04:34:00;7.20;99.90
17827;DHT22;9038;48.208;16.308;2023-12-28T04:36:03;7.10;99.90
17827;DHT22;9038;48.208;16.308;2023-12-28T04:38:08;7.10;99.90
17827;DHT22;9038;48.208;16.308;2023-12-28T04:40:09;7.00;99.90
17827;DHT22;9038;48.208;16.308;2023-12-28T04:42:11;6.90;99.90
17827;DHT22;9038;48.208;16.308;2023-12-28T04:44:13;6.90;99.90
17827;DHT22;9038;48.208;16.308;2023-12-28T04:46:14;6.80;99.90
17827;DHT22;9038;48.208;16.308;2023-12-28T04:48:16;6.80;99.90
17827;DHT22;9038;48.208;16.308;2023-12-28T04:50:21;6.90;99.90
17827;DHT22;9038;48.208;16.308;2023-12-28T04:52:23;6.90;99.90
17827;DHT22;9038;48.208;16.308;2023-12-28T04:54:24;6.90;99.90
17827;DHT22;9038;48.208;16.308;2023-12-28T04:56:26;6.90;99.90
17827;DHT22;9038;48.208;16.308;2023-12-28T04:58:27;6.90;99.90
17827;DHT22;9038;48.208;16.308;2023-12-28T05:00:28;6.90;99.90
17827;DHT22;9038;48.208;16.308;2023-12-28T05:02:30;7.00;99.90
17827;DHT22;9038;48.208;16.308;2023-12-28T05:04:32;7.00;99.90
17827;DHT22;9038;48.208;16.308;2023-12-28T05:06:33;7.10;99.90
17827;DHT22;9038;48.208;16.308;2023-12-28T05:08:35;7.10;99.90
17827;DHT22;9038;48.208;16.308;2023-12-28T05:10:37;7.20;99.90
17827;DHT22;9038;48.208;16.308;2023-12-28T05:12:38;7.20;99.90
17827;DHT22;9038;48.208;16.308;2023-12-28T05:14:39;7.20;99.90
17827;DHT22;9038;48.208;16.308;2023-12-28T05:16:41;7.20;99.90
17827;DHT22;9038;48.208;16.308;2023-12-28T05:18:43;7.20;99.90
17827;DHT22;9038;48.208;16.308;2023-12-28T05:20:44;7.20;99.90
17827;DHT22;9038;48.208;16.308;2023-12-28T05:22:46;7.20;99.90
17827;DHT22;9038;48.208;16.308;2023-12-28T05:24:50;7.30;99.90
17827;DHT22;9038;48.208;16.308;2023-12-28T05:26:51;7.30;99.90
17827;DHT22;9038;48.208;16.308;2023-12-28T05:28:53;7.40;99.90
17827;DHT22;9038;48.208;16.308;2023-12-28T05:30:55;7.30;99.90
17827;DHT22;9038;48.208;16.308;2023-12-28T05:32:59;7.30;99.90
17827;DHT22;9038;48.208;16.308;2023-12-28T05:35:00;7.30;99.90
17827;DHT22;9038;48.208;16.308;2023-12-28T05:37:03;7.30;99.90
17827;DHT22;9038;48.208;16.308;2023-12-28T05:39:04;7.30;99.90
17827;DHT22;9038;48.208;16.308;2023-12-28T05:41:07;7.30;99.90
17827;DHT22;9038;48.208;16.308;2023-12-28T05:43:10;7.30;99.90
17827;DHT22;9038;48.208;16.308;2023-12-28T05:45:12;7.30;99.90
17827;DHT22;9038;48.208;16.308;2023-12-28T05:47:13;7.30;99.90
17827;DHT22;9038;48.208;16.308;2023-12-28T05:49:15;7.30;99.90
17827;DHT22;9038;48.208;16.308;2023-12-28T05:51:16;7.30;99.90
17827;DHT22;9038;48.208;16.308;2023-12-28T05:53:18;7.30;99.90
17827;DHT22;9038;48.208;16.308;2023-12-28T05:55:20;7.30;99.90
17827;DHT22;9038;48.208;16.308;2023-12-28T05:57:23;7.30;99.90
17827;DHT22;9038;48.208;16.308;2023-12-28T05:59:27;7.40;99.90
17827;DHT22;9038;48.208;16.308;2023-12-28T06:01:28;7.40;99.90
17827;DHT22;9038;48.208;16.308;2023-12-28T06:03:30;7.30;99.90
17827;DHT22;9038;48.208;16.308;2023-12-28T06:05:32;7.40;99.90
17827;DHT22;9038;48.208;16.308;2023-12-28T06:07:32;7.40;99.90
17827;DHT22;9038;48.208;16.308;2023-12-28T06:09:37;7.40;99.90
17827;DHT22;9038;48.208;16.308;2023-12-28T06:11:40;7.40;99.90
17827;DHT22;9038;48.208;16.308;2023-12-28T06:13:43;7.40;99.90
17827;DHT22;9038;48.208;16.308;2023-12-28T06:15:44;7.50;99.90
17827;DHT22;9038;48.208;16.308;2023-12-28T06:17:46;7.50;99.90
17827;DHT22;9038;48.208;16.308;2023-12-28T06:19:48;7.50;99.90
17827;DHT22;9038;48.208;16.308;2023-12-28T06:21:50;7.50;99.90
17827;DHT22;9038;48.208;16.308;2023-12-28T06:23:52;7.50;99.90
17827;DHT22;9038;48.208;16.308;2023-12-28T06:25:53;7.50;99.90
17827;DHT22;9038;48.208;16.308;2023-12-28T06:27:55;7.50;99.90
17827;DHT22;9038;48.208;16.308;2023-12-28T06:29:59;7.50;99.90
17827;DHT22;9038;48.208;16.308;2023-12-28T06:32:00;7.50;99.90
17827;DHT22;9038;48.208;16.308;2023-12-28T06:34:02;7.50;99.90
17827;DHT22;9038;48.208;16.308;2023-12-28T06:36:07;7.50;99.90
17827;DHT22;9038;48.208;16.308;2023-12-28T06:38:09;7.40;99.90
17827;DHT22;9038;48.208;16.308;2023-12-28T06:40:11;7.40;99.90
17827;DHT22;9038;48.208;16.308;2023-12-28T06:42:14;7.40;99.90
17827;DHT22;9038;48.208;16.308;2023-12-28T06:44:15;7.40;99.90
17827;DHT22;9038;48.208;16.308;2023-12-28T06:46:18;7.40;99.90
17827;DHT22;9038;48.208;16.308;2023-12-28T06:48:20;7.30;99.90
17827;DHT22;9038;48.208;16.308;2023-12-28T06:50:21;7.40;99.90
17827;DHT22;9038;48.208;16.308;2023-12-28T06:52:23;7.40;99.90
17827;DHT22;9038;48.208;16.308;2023-12-28T06:54:24;7.40;99.90
17827;DHT22;9038;48.208;16.308;2023-12-28T06:56:26;7.40;99.90
17827;DHT22;9038;48.208;16.308;2023-12-28T06:58:26;7.40;99.90
17827;DHT22;9038;48.208;16.308;2023-12-28T07:00:29;7.50;99.90
17827;DHT22;9038;48.208;16.308;2023-12-28T07:02:32;7.50;99.90
17827;DHT22;9038;48.208;16.308;2023-12-28T07:04:34;7.50;99.90
17827;DHT22;9038;48.208;16.308;2023-12-28T07:06:35;7.40;99.90
17827;DHT22;9038;48.208;16.308;2023-12-28T07:08:36;7.50;99.90
17827;DHT22;9038;48.208;16.308;2023-12-28T07:10:38;7.60;99.90
17827;DHT22;9038;48.208;16.308;2023-12-28T07:12:40;7.60;99.90
17827;DHT22;9038;48.208;16.308;2023-12-28T07:14:41;7.60;99.90
17827;DHT22;9038;48.208;16.308;2023-12-28T07:16:43;7.50;99.90
17827;DHT22;9038;48.208;16.308;2023-12-28T07:18:45;7.40;99.90
17827;DHT22;9038;48.208;16.308;2023-12-28T07:20:47;7.40;99.90
17827;DHT22;9038;48.208;16.308;2023-12-28T07:22:48;7.40;99.90
17827;DHT22;9038;48.208;16.308;2023-12-28T07:24:50;7.40;99.90
17827;DHT22;9038;48.208;16.308;2023-12-28T07:26:52;7.40;99.90
17827;DHT22;9038;48.208;16.308;2023-12-28T07:28:53;7.40;99.90
17827;DHT22;9038;48.208;16.308;2023-12-28T07:30:55;7.50;99.90
17827;DHT22;9038;48.208;16.308;2023-12-28T07:32:57;7.40;99.90
17827;DHT22;9038;48.208;16.308;2023-12-28T07:35:00;7.40;99.90
17827;DHT22;9038;48.208;16.308;2023-12-28T07:37:01;7.30;99.90
17827;DHT22;9038;48.208;16.308;2023-12-28T07:39:03;7.30;99.90
17827;DHT22;9038;48.208;16.308;2023-12-28T07:41:05;7.40;99.90
17827;DHT22;9038;48.208;16.308;2023-12-28T07:43:06;7.30;99.90
17827;DHT22;9038;48.208;16.308;2023-12-28T07:45:09;7.30;99.90
17827;DHT22;9038;48.208;16.308;2023-12-28T07:47:10;7.30;99.90
17827;DHT22;9038;48.208;16.308;2023-12-28T07:49:12;7.30;99.90
17827;DHT22;9038;48.208;16.308;2023-12-28T07:51:15;7.30;99.90
17827;DHT22;9038;48.208;16.308;2023-12-28T07:53:17;7.30;99.90
17827;DHT22;9038;48.208;16.308;2023-12-28T07:55:19;7.30;99.90
17827;DHT22;9038;48.208;16.308;2023-12-28T07:57:21;7.20;99.90
17827;DHT22;9038;48.208;16.308;2023-12-28T07:59:22;7.10;99.90
17827;DHT22;9038;48.208;16.308;2023-12-28T08:01:24;7.20;99.90
17827;DHT22;9038;48.208;16.308;2023-12-28T08:03:26;7.20;99.90
17827;DHT22;9038;48.208;16.308;2023-12-28T08:05:27;7.20;99.90
17827;DHT22;9038;48.208;16.308;2023-12-28T08:07:31;7.20;99.90
17827;DHT22;9038;48.208;16.308;2023-12-28T08:09:32;7.20;99.90
17827;DHT22;9038;48.208;16.308;2023-12-28T08:11:35;7.20;99.90
17827;DHT22;9038;48.208;16.308;2023-12-28T08:13:37;7.10;99.90
17827;DHT22;9038;48.208;16.308;2023-12-28T08:15:39;7.00;99.90
17827;DHT22;9038;48.208;16.308;2023-12-28T08:17:40;7.00;99.90
17827;DHT22;9038;48.208;16.308;2023-12-28T08:19:42;7.10;99.90
17827;DHT22;9038;48.208;16.308;2023-12-28T08:21:42;7.10;99.90
17827;DHT22;9038;48.208;16.308;2023-12-28T08:23:45;7.10;99.90
17827;DHT22;9038;48.208;16.308;2023-12-28T08:25:47;7.10;99.90
17827;DHT22;9038;48.208;16.308;2023-12-28T08:27:49;7.10;99.90
17827;DHT22;9038;48.208;16.308;2023-12-28T08:29:49;7.10;99.90
17827;DHT22;9038;48.208;16.308;2023-12-28T08:31:51;7.10;99.90
17827;DHT22;9038;48.208;16.308;2023-12-28T08:33:53;7.10;99.90
17827;DHT22;9038;48.208;16.308;2023-12-28T08:35:54;7.20;99.90
17827;DHT22;9038;48.208;16.308;2023-12-28T08:37:56;7.20;99.90
17827;DHT22;9038;48.208;16.308;2023-12-28T08:39:59;7.10;99.90
17827;DHT22;9038;48.208;16.308;2023-12-28T08:42:01;7.10;99.90
17827;DHT22;9038;48.208;16.308;2023-12-28T08:44:03;7.20;99.90
17827;DHT22;9038;48.208;16.308;2023-12-28T08:46:07;7.20;99.90
17827;DHT22;9038;48.208;16.308;2023-12-28T08:48:09;7.30;99.90
17827;DHT22;9038;48.208;16.308;2023-12-28T08:50:10;7.00;99.90
17827;DHT22;9038;48.208;16.308;2023-12-28T08:52:12;7.40;99.90
17827;DHT22;9038;48.208;16.308;2023-12-28T08:54:13;7.40;99.90
17827;DHT22;9038;48.208;16.308;2023-12-28T08:56:17;7.40;99.90
17827;DHT22;9038;48.208;16.308;2023-12-28T08:58:19;7.40;99.90
17827;DHT22;9038;48.208;16.308;2023-12-28T09:00:21;7.50;99.90
17827;DHT22;9038;48.208;16.308;2023-12-28T09:02:22;7.40;99.90
17827;DHT22;9038;48.208;16.308;2023-12-28T09:04:24;7.40;99.90
17827;DHT22;9038;48.208;16.308;2023-12-28T09:06:26;7.40;99.90
17827;DHT22;9038;48.208;16.308;2023-12-28T09:08:26;7.40;99.90
17827;DHT22;9038;48.208;16.308;2023-12-28T09:10:28;7.50;99.90
17827;DHT22;9038;48.208;16.308;2023-12-28T09:12:31;7.50;99.90
17827;DHT22;9038;48.208;16.308;2023-12-28T09:14:32;7.50;99.90
17827;DHT22;9038;48.208;16.308;2023-12-28T09:16:33;7.50;99.90
17827;DHT22;9038;48.208;16.308;2023-12-28T09:18:35;7.60;99.90
17827;DHT22;9038;48.208;16.308;2023-12-28T09:20:37;7.60;99.90
17827;DHT22;9038;48.208;16.308;2023-12-28T09:22:38;7.60;99.90
17827;DHT22;9038;48.208;16.308;2023-12-28T09:24:40;7.70;99.90
17827;DHT22;9038;48.208;16.308;2023-12-28T09:26:42;7.70;99.90
17827;DHT22;9038;48.208;16.308;2023-12-28T09:28:45;7.70;99.90
17827;DHT22;9038;48.208;16.308;2023-12-28T09:30:46;7.70;99.90
17827;DHT22;9038;48.208;16.308;2023-12-28T09:32:48;7.60;99.90
17827;DHT22;9038;48.208;16.308;2023-12-28T09:34:50;7.60;99.90
17827;DHT22;9038;48.208;16.308;2023-12-28T09:36:51;7.70;99.90
17827;DHT22;9038;48.208;16.308;2023-12-28T09:38:53;7.70;99.90
17827;DHT22;9038;48.208;16.308;2023-12-28T09:40:55;7.70;99.90
17827;DHT22;9038;48.208;16.308;2023-12-28T09:43:01;7.70;99.90
17827;DHT22;9038;48.208;16.308;2023-12-28T09:45:06;7.70;99.90
17827;DHT22;9038;48.208;16.308;2023-12-28T09:47:10;7.70;99.90
17827;DHT22;9038;48.208;16.308;2023-12-28T09:49:13;7.70;99.90
17827;DHT22;9038;48.208;16.308;2023-12-28T09:51:14;7.70;99.90
17827;DHT22;9038;48.208;16.308;2023-12-28T09:53:16;7.70;99.90
17827;DHT22;9038;48.208;16.308;2023-12-28T09:55:18;7.60;99.90
17827;DHT22;9038;48.208;16.308;2023-12-28T09:57:20;7.70;99.90
17827;DHT22;9038;48.208;16.308;2023-12-28T09:59:21;7.90;99.90
17827;DHT22;9038;48.208;16.308;2023-12-28T10:01:25;8.00;99.90
17827;DHT22;9038;48.208;16.308;2023-12-28T10:03:27;8.20;99.90
17827;DHT22;9038;48.208;16.308;2023-12-28T10:05:29;8.30;99.90
17827;DHT22;9038;48.208;16.308;2023-12-28T10:07:30;8.30;99.90
17827;DHT22;9038;48.208;16.308;2023-12-28T10:09:32;8.40;99.90
17827;DHT22;9038;48.208;16.308;2023-12-28T10:11:34;8.50;99.90
17827;DHT22;9038;48.208;16.308;2023-12-28T10:13:36;8.30;99.90
17827;DHT22;9038;48.208;16.308;2023-12-28T10:15:38;8.10;99.90
17827;DHT22;9038;48.208;16.308;2023-12-28T10:17:41;8.00;99.90
17827;DHT22;9038;48.208;16.308;2023-12-28T10:19:42;8.00;99.90
17827;DHT22;9038;48.208;16.308;2023-12-28T10:21:47;8.00;99.90
17827;DHT22;9038;48.208;16.308;2023-12-28T10:23:49;8.10;99.90
17827;DHT22;9038;48.208;16.308;2023-12-28T10:25:51;8.10;99.90
17827;DHT22;9038;48.208;16.308;2023-12-28T10:27:54;8.10;99.90
17827;DHT22;9038;48.208;16.308;2023-12-28T10:29:56;8.20;99.90
17827;DHT22;9038;48.208;16.308;2023-12-28T10:31:57;8.20;99.90
17827;DHT22;9038;48.208;16.308;2023-12-28T10:34:00;8.30;99.90
17827;DHT22;9038;48.208;16.308;2023-12-28T10:36:03;8.30;99.90
17827;DHT22;9038;48.208;16.308;2023-12-28T10:38:05;8.30;99.90
17827;DHT22;9038;48.208;16.308;2023-12-28T10:40:11;8.30;99.90
17827;DHT22;9038;48.208;16.308;2023-12-28T10:42:13;8.30;99.90
17827;DHT22;9038;48.208;16.308;2023-12-28T10:44:17;8.30;99.90
17827;DHT22;9038;48.208;16.308;2023-12-28T10:46:22;8.30;99.90
17827;DHT22;9038;48.208;16.308;2023-12-28T10:48:27;8.30;99.90
17827;DHT22;9038;48.208;16.308;2023-12-28T10:50:33;8.20;99.90
17827;DHT22;9038;48.208;16.308;2023-12-28T10:52:38;8.10;99.90
17827;DHT22;9038;48.208;16.308;2023-12-28T10:54:41;8.00;99.90
17827;DHT22;9038;48.208;16.308;2023-12-28T10:56:46;7.90;99.90
17827;DHT22;9038;48.208;16.308;2023-12-28T10:58:49;7.90;99.90
17827;DHT22;9038;48.208;16.308;2023-12-28T11:00:53;7.90;99.90
17827;DHT22;9038;48.208;16.308;2023-12-28T11:02:56;8.00;99.90
17827;DHT22;9038;48.208;16.308;2023-12-28T11:04:59;8.10;99.90
17827;DHT22;9038;48.208;16.308;2023-12-28T11:07:03;8.20;99.90
17827;DHT22;9038;48.208;16.308;2023-12-28T11:09:04;8.20;99.90
17827;DHT22;9038;48.208;16.308;2023-12-28T11:11:08;8.20;99.90
17827;DHT22;9038;48.208;16.308;2023-12-28T11:13:10;8.20;99.90
17827;DHT22;9038;48.208;16.308;2023-12-28T11:15:13;8.10;99.90
17827;DHT22;9038;48.208;16.308;2023-12-28T11:17:15;8.10;99.90
17827;DHT22;9038;48.208;16.308;2023-12-28T11:19:17;8.00;99.90
17827;DHT22;9038;48.208;16.308;2023-12-28T11:21:19;7.90;99.90
17827;DHT22;9038;48.208;16.308;2023-12-28T11:23:23;7.80;99.90
17827;DHT22;9038;48.208;16.308;2023-12-28T11:25:30;7.70;99.90
17827;DHT22;9038;48.208;16.308;2023-12-28T11:27:35;7.80;99.90
17827;DHT22;9038;48.208;16.308;2023-12-28T11:29:37;7.80;99.90
17827;DHT22;9038;48.208;16.308;2023-12-28T11:31:37;7.80;99.90
17827;DHT22;9038;48.208;16.308;2023-12-28T11:33:43;7.80;99.90
17827;DHT22;9038;48.208;16.308;2023-12-28T11:35:43;7.70;99.90
17827;DHT22;9038;48.208;16.308;2023-12-28T11:37:46;7.80;99.90
17827;DHT22;9038;48.208;16.308;2023-12-28T11:39:50;7.90;99.90
17827;DHT22;9038;48.208;16.308;2023-12-28T11:41:52;8.10;99.90
17827;DHT22;9038;48.208;16.308;2023-12-28T11:44:01;8.20;99.90
17827;DHT22;9038;48.208;16.308;2023-12-28T11:46:05;8.20;99.90
17827;DHT22;9038;48.208;16.308;2023-12-28T11:48:09;8.20;99.90
17827;DHT22;9038;48.208;16.308;2023-12-28T11:50:09;8.20;99.90
17827;DHT22;9038;48.208;16.308;2023-12-28T11:52:21;8.30;99.90
17827;DHT22;9038;48.208;16.308;2023-12-28T11:54:24;8.30;99.90
17827;DHT22;9038;48.208;16.308;2023-12-28T11:56:27;8.30;99.90
17827;DHT22;9038;48.208;16.308;2023-12-28T11:58:29;8.20;99.90
17827;DHT22;9038;48.208;16.308;2023-12-28T12:00:30;8.20;99.90
17827;DHT22;9038;48.208;16.308;2023-12-28T12:02:32;8.10;99.90
17827;DHT22;9038;48.208;16.308;2023-12-28T12:04:34;7.90;99.90
17827;DHT22;9038;48.208;16.308;2023-12-28T12:06:36;8.00;99.90
17827;DHT22;9038;48.208;16.308;2023-12-28T12:08:37;7.90;99.90
17827;DHT22;9038;48.208;16.308;2023-12-28T12:10:38;7.90;99.90
17827;DHT22;9038;48.208;16.308;2023-12-28T12:12:40;7.90;99.90
17827;DHT22;9038;48.208;16.308;2023-12-28T12:14:42;8.00;99.90
17827;DHT22;9038;48.208;16.308;2023-12-28T12:16:44;8.10;99.90
17827;DHT22;9038;48.208;16.308;2023-12-28T12:18:48;8.20;99.90
17827;DHT22;9038;48.208;16.308;2023-12-28T12:20:50;8.20;99.90
17827;DHT22;9038;48.208;16.308;2023-12-28T12:22:51;8.30;99.90
17827;DHT22;9038;48.208;16.308;2023-12-28T12:24:53;8.30;99.90
17827;DHT22;9038;48.208;16.308;2023-12-28T12:26:57;8.20;99.90
17827;DHT22;9038;48.208;16.308;2023-12-28T12:29:03;8.00;99.90
17827;DHT22;9038;48.208;16.308;2023-12-28T12:31:07;7.90;99.90
17827;DHT22;9038;48.208;16.308;2023-12-28T12:33:10;7.80;99.90
17827;DHT22;9038;48.208;16.308;2023-12-28T12:35:12;7.60;99.90
17827;DHT22;9038;48.208;16.308;2023-12-28T12:37:15;7.70;99.90
17827;DHT22;9038;48.208;16.308;2023-12-28T12:39:17;7.70;99.90
17827;DHT22;9038;48.208;16.308;2023-12-28T12:41:18;7.70;99.90
17827;DHT22;9038;48.208;16.308;2023-12-28T12:43:20;7.80;99.90
17827;DHT22;9038;48.208;16.308;2023-12-28T12:45:24;7.80;99.90
17827;DHT22;9038;48.208;16.308;2023-12-28T12:47:25;7.90;99.90
17827;DHT22;9038;48.208;16.308;2023-12-28T12:49:27;7.80;99.90
17827;DHT22;9038;48.208;16.308;2023-12-28T12:51:29;7.80;99.90
17827;DHT22;9038;48.208;16.308;2023-12-28T12:53:34;7.80;99.90
17827;DHT22;9038;48.208;16.308;2023-12-28T12:55:36;7.80;99.90
17827;DHT22;9038;48.208;16.308;2023-12-28T12:57:39;7.80;99.90
17827;DHT22;9038;48.208;16.308;2023-12-28T12:59:40;7.70;99.90
17827;DHT22;9038;48.208;16.308;2023-12-28T13:01:44;7.80;99.90
17827;DHT22;9038;48.208;16.308;2023-12-28T13:03:45;7.80;99.90